Time,TemperatureF,DewpointF,PressureIn,WindDirection,WindDirectionDegrees,WindSpeedMPH,WindSpeedGustMPH,Humidity,HourlyPrecipIn,Conditions,Clouds,dailyrainin,SoftwareType,DateUTC
2013-10-08 00:11:00,54.0,50.0,29.92,SSW,211,0.0,0.0,86,0.00,,,0.00,,2013-10-08 07:11:00,
2013-10-08 00:21:00,54.0,49.0,29.91,NE,54,4.0,5.0,83,0.00,,,0.00,,2013-10-08 07:21:00,
2013-10-08 00:41:00,55.0,50.0,29.91,NE,53,2.0,5.0,83,0.00,,,0.00,,2013-10-08 07:41:00,
2013-10-08 00:52:00,55.0,51.0,29.91,NE,51,0.0,0.0,86,0.00,,,0.00,,2013-10-08 07:52:00,
2013-10-08 01:12:00,55.0,51.0,29.91,NE,51,0.0,0.0,85,0.00,,,0.00,,2013-10-08 08:12:00,
2013-10-08 01:21:00,54.0,51.0,29.91,NE,51,0.0,0.0,88,0.00,,,0.00,,2013-10-08 08:21:00,
2013-10-08 01:52:00,53.0,50.0,29.91,NE,51,0.0,0.0,89,0.00,,,0.00,,2013-10-08 08:52:00,
2013-10-08 02:12:00,52.0,48.0,29.91,NE,51,0.0,0.0,87,0.00,,,0.00,,2013-10-08 09:12:00,
2013-10-08 02:21:00,53.0,48.0,29.91,NE,51,0.0,0.0,83,0.00,,,0.00,,2013-10-08 09:21:00,
2013-10-08 02:53:00,52.0,44.0,29.89,NE,51,0.0,0.0,75,0.00,,,0.00,,2013-10-08 09:53:00,
2013-10-08 03:12:00,52.0,43.0,29.89,NE,51,0.0,0.0,71,0.00,,,0.00,,2013-10-08 10:12:00,
2013-10-08 03:23:00,52.0,43.0,29.88,NE,51,0.0,0.0,71,0.00,,,0.00,,2013-10-08 10:23:00,
2013-10-08 03:53:00,51.0,44.0,29.88,NE,51,0.0,0.0,78,0.00,,,0.00,,2013-10-08 10:53:00,
2013-10-08 04:12:00,51.0,44.0,29.88,NE,51,0.0,0.0,78,0.00,,,0.00,,2013-10-08 11:12:00,
2013-10-08 04:21:00,51.0,43.0,29.88,NE,51,0.0,0.0,75,0.00,,,0.00,,2013-10-08 11:21:00,
2013-10-08 04:42:00,51.0,43.0,29.88,NE,51,0.0,0.0,74,0.00,,,0.00,,2013-10-08 11:42:00,
2013-10-08 04:52:00,51.0,45.0,29.88,NE,51,0.0,0.0,81,0.00,,,0.00,,2013-10-08 11:52:00,
2013-10-08 05:12:00,51.0,43.0,29.88,NE,51,0.0,0.0,75,0.00,,,0.00,,2013-10-08 12:12:00,
2013-10-08 05:21:00,51.0,45.0,29.88,NE,51,0.0,0.0,81,0.00,,,0.00,,2013-10-08 12:21:00,
2013-10-08 05:52:00,52.0,43.0,29.88,NE,51,0.0,0.0,70,0.00,,,0.00,,2013-10-08 12:52:00,
2013-10-08 06:11:00,52.0,40.0,29.88,NE,51,0.0,0.0,63,0.00,,,0.00,,2013-10-08 13:11:00,
2013-10-08 06:22:00,52.0,40.0,29.88,NE,51,0.0,0.0,64,0.00,,,0.00,,2013-10-08 13:22:00,
2013-10-08 06:42:00,51.0,40.0,29.89,NE,51,0.0,0.0,65,0.00,,,0.00,,2013-10-08 13:42:00,
2013-10-08 06:52:00,50.0,39.0,29.89,NE,51,0.0,0.0,67,0.00,,,0.00,,2013-10-08 13:52:00,
2013-10-08 07:21:00,50.0,39.0,29.89,NE,51,0.0,0.0,65,0.00,,,0.00,,2013-10-08 14:21:00,
2013-10-08 07:42:00,50.0,38.0,29.89,NE,51,0.0,0.0,63,0.00,,,0.00,,2013-10-08 14:42:00,
2013-10-08 07:52:00,50.0,37.0,29.89,NE,51,0.0,0.0,61,0.00,,,0.00,,2013-10-08 14:52:00,
2013-10-08 08:11:00,50.0,38.0,29.90,NE,51,0.0,0.0,63,0.00,,,0.00,,2013-10-08 15:11:00,
2013-10-08 08:53:00,54.0,40.0,29.91,NE,51,0.0,0.0,58,0.00,,,0.00,,2013-10-08 15:53:00,
2013-10-08 09:42:00,59.0,42.0,29.91,NE,50,0.0,0.0,53,0.00,,,0.00,,2013-10-08 16:42:00,
2013-10-08 10:12:00,63.0,49.0,29.91,SW,222,0.0,1.0,61,0.00,,,0.00,,2013-10-08 17:12:00,
2013-10-08 10:22:00,64.0,48.0,29.91,West,259,0.0,2.0,57,0.00,,,0.00,,2013-10-08 17:22:00,
2013-10-08 10:52:00,67.0,53.0,29.90,WSW,251,1.0,4.0,60,0.00,,,0.00,,2013-10-08 17:52:00,
2013-10-08 11:11:00,68.0,53.0,29.90,SW,236,1.0,5.0,58,0.00,,,0.00,,2013-10-08 18:11:00,
2013-10-08 11:22:00,69.0,53.0,29.89,WSW,255,0.0,8.0,57,0.00,,,0.00,,2013-10-08 18:22:00,
2013-10-08 11:41:00,70.0,54.0,29.89,WSW,238,1.0,8.0,57,0.00,,,0.00,,2013-10-08 18:41:00,
2013-10-08 11:53:00,71.0,54.0,29.89,SSW,196,2.0,7.0,55,0.00,,,0.00,,2013-10-08 18:53:00,
2013-10-08 12:11:00,71.0,54.0,29.88,SW,222,3.0,10.0,55,0.00,,,0.00,,2013-10-08 19:11:00,
2013-10-08 12:21:00,71.0,54.0,29.88,SW,223,4.0,12.0,56,0.00,,,0.00,,2013-10-08 19:21:00,
2013-10-08 12:42:00,72.0,55.0,29.88,SSW,210,0.0,9.0,55,0.00,,,0.00,,2013-10-08 19:42:00,
2013-10-08 12:52:00,72.0,54.0,29.88,SW,219,1.0,8.0,54,0.00,,,0.00,,2013-10-08 19:52:00,
2013-10-08 13:12:00,72.0,54.0,29.87,WSW,250,4.0,10.0,54,0.00,,,0.00,,2013-10-08 20:12:00,
2013-10-08 13:22:00,72.0,55.0,29.86,WSW,257,4.0,11.0,55,0.00,,,0.00,,2013-10-08 20:22:00,
2013-10-08 13:42:00,72.0,55.0,29.86,WSW,257,5.0,10.0,55,0.00,,,0.00,,2013-10-08 20:42:00,
2013-10-08 13:52:00,73.0,55.0,29.85,SW,227,1.0,10.0,53,0.00,,,0.00,,2013-10-08 20:52:00,
2013-10-08 14:12:00,73.0,55.0,29.85,ESE,122,1.0,7.0,53,0.00,,,0.00,,2013-10-08 21:12:00,
2013-10-08 14:21:00,72.0,54.0,29.85,WSW,240,2.0,8.0,53,0.00,,,0.00,,2013-10-08 21:21:00,
2013-10-08 14:44:00,72.0,53.0,29.84,SE,144,1.0,7.0,52,0.00,,,0.00,,2013-10-08 21:44:00,
2013-10-08 14:54:00,71.0,52.0,29.83,SW,215,2.0,7.0,52,0.00,,,0.00,,2013-10-08 21:54:00,
2013-10-08 15:13:00,72.0,53.0,29.83,SW,223,3.0,8.0,51,0.00,,,0.00,,2013-10-08 22:13:00,
2013-10-08 15:24:00,72.0,53.0,29.83,SW,216,0.0,3.0,51,0.00,,,0.00,,2013-10-08 22:24:00,
2013-10-08 15:44:00,71.0,54.0,29.83,West,280,0.0,4.0,54,0.00,,,0.00,,2013-10-08 22:44:00,
2013-10-08 15:56:00,70.0,54.0,29.82,NW,315,1.0,6.0,56,0.00,,,0.00,,2013-10-08 22:56:00,
2013-10-08 16:12:00,70.0,54.0,29.81,WSW,246,0.0,7.0,57,0.00,,,0.00,,2013-10-08 23:12:00,
2013-10-08 16:22:00,70.0,53.0,29.81,West,260,0.0,4.0,54,0.00,,,0.00,,2013-10-08 23:22:00,
2013-10-08 16:52:00,69.0,53.0,29.80,SW,220,1.0,7.0,57,0.00,,,0.00,,2013-10-08 23:52:00,
2013-10-08 17:12:00,68.0,53.0,29.80,WSW,255,2.0,7.0,59,0.00,,,0.00,,2013-10-09 00:12:00,
2013-10-08 17:22:00,67.0,54.0,29.80,SW,225,1.0,6.0,64,0.00,,,0.00,,2013-10-09 00:22:00,
2013-10-08 17:42:00,66.0,54.0,29.81,SW,219,2.0,7.0,65,0.00,,,0.00,,2013-10-09 00:42:00,
2013-10-08 17:52:00,64.0,52.0,29.81,SW,221,2.0,5.0,66,0.00,,,0.00,,2013-10-09 00:52:00,
2013-10-08 18:12:00,63.0,52.0,29.81,SW,221,2.0,8.0,68,0.00,,,0.00,,2013-10-09 01:12:00,
2013-10-08 18:21:00,61.0,53.0,29.82,SW,215,1.0,5.0,74,0.00,,,0.00,,2013-10-09 01:21:00,
2013-10-08 18:43:00,60.0,53.0,29.82,SW,219,0.0,4.0,77,0.00,,,0.00,,2013-10-09 01:43:00,
2013-10-08 18:52:00,59.0,53.0,29.82,SW,219,0.0,0.0,80,0.00,,,0.00,,2013-10-09 01:52:00,
2013-10-08 19:22:00,57.0,52.0,29.81,SW,219,0.0,1.0,83,0.00,,,0.00,,2013-10-09 02:22:00,
2013-10-08 19:42:00,57.0,52.0,29.82,SW,219,0.0,0.0,84,0.00,,,0.00,,2013-10-09 02:42:00,
2013-10-08 19:52:00,56.0,52.0,29.82,SW,219,0.0,0.0,86,0.00,,,0.00,,2013-10-09 02:52:00,
2013-10-08 20:11:00,56.0,52.0,29.82,SW,219,0.0,0.0,86,0.00,,,0.00,,2013-10-09 03:11:00,
2013-10-08 20:23:00,55.0,51.0,29.82,SW,219,0.0,0.0,86,0.00,,,0.00,,2013-10-09 03:23:00,
2013-10-08 20:44:00,55.0,51.0,29.81,SW,219,0.0,0.0,87,0.00,,,0.00,,2013-10-09 03:44:00,
2013-10-08 20:54:00,56.0,52.0,29.82,SW,219,0.0,0.0,87,0.00,,,0.00,,2013-10-09 03:54:00,
2013-10-08 21:14:00,56.0,52.0,29.82,SW,219,0.0,0.0,86,0.00,,,0.00,,2013-10-09 04:14:00,
2013-10-08 21:23:00,56.0,52.0,29.83,SW,219,0.0,0.0,85,0.00,,,0.00,,2013-10-09 04:23:00,
2013-10-08 21:44:00,57.0,53.0,29.82,SW,219,0.0,0.0,85,0.00,,,0.00,,2013-10-09 04:44:00,
2013-10-08 21:54:00,57.0,52.0,29.82,SW,219,0.0,0.0,84,0.00,,,0.00,,2013-10-09 04:54:00,
2013-10-08 22:22:00,57.0,52.0,29.82,ENE,70,0.0,0.0,84,0.00,,,0.00,,2013-10-09 05:22:00,
2013-10-08 22:42:00,57.0,52.0,29.82,ENE,69,0.0,0.0,83,0.00,,,0.00,,2013-10-09 05:42:00,
2013-10-08 22:52:00,57.0,52.0,29.82,ENE,70,0.0,0.0,83,0.00,,,0.00,,2013-10-09 05:52:00,
2013-10-08 23:12:00,57.0,52.0,29.82,ENE,69,0.0,0.0,83,0.00,,,0.00,,2013-10-09 06:12:00,
2013-10-08 23:22:00,57.0,52.0,29.81,ENE,70,0.0,0.0,82,0.00,,,0.00,,2013-10-09 06:22:00,
2013-10-08 23:42:00,57.0,52.0,29.82,ENE,70,0.0,0.0,82,0.00,,,0.00,,2013-10-09 06:42:00,
2013-10-08 23:52:00,57.0,52.0,29.81,ENE,67,0.0,0.0,82,0.00,,,0.00,,2013-10-09 06:52:00,